Terminal Aerodrome Forecast
Issued by NWS Wilmington, NC

Home | Current Version | Previous Version | Text Only | Print | Product List | Glossary On
Versions: 1 2 3 4 5 6 7 8 9 10 11 12 13 14 15 16 17 18 19 20 21 22 23
000
FTUS42 KILM 181100
TAFMYR
TAF
KMYR 181131Z 1812/1912 03006KT P6SM SCT025 SCT050
     FM181900 11009KT P6SM SCT035 BKN070
     FM190500 04005KT P6SM SCT040 SCT080=

USA.gov is the U.S. government's official web portal to all federal, state and local government web resources and services.